< < Back
Terminal Aerodrome Forecast


Current Version              Previous Versions:   1  2  3  4  5  6  7  8  9  

Terminal Aerodrome Forecast

832
FTUS42 KCAE 201700
TAFAGS
TAF
KAGS 201721Z 2018/2118 21004KT P6SM FEW250
     FM210000 VRB02KT P6SM SKC
      TEMPO 2110/2113 3SM BR
     FM211500 30004KT P6SM SKC=

Latest METAR

381
SAUS70 KWBC 201800 RRM
MTRAGS
METAR KAGS 201753Z 10SM CLR 24/08 A3005 RMK AO2 SLP174 T02390083 10239
20039 58031


USA.gov is the U.S. government's official web portal to all federal, state and local government web resources and services.